Time;durP1;ratioP1;P1;durP2;ratioP2;P2;SDS_P1;SDS_P2;PMS_P1;PMS_P2;Temp;Humidity;BMP_temperature;BMP_pressure;BME280_temperature;BME280_humidity;BME280_pressure;Samples;Min_cycle;Max_cycle;Signal;HPM_P1;HPM_P2
2023/03/24 00:01:05;;;;;;;5.00;2.13;;;;;;;18.64;51.62;99793.00;5029340;28;20058;-43
2023/03/24 00:03:32;;;;;;;3.65;1.95;;;;;;;18.63;51.64;99788.66;5027920;28;20056;-42
2023/03/24 00:06:02;;;;;;;3.33;1.80;;;;;;;18.62;51.98;99776.25;5029902;28;20112;-43
2023/03/24 00:08:30;;;;;;;6.15;1.90;;;;;;;18.62;52.07;99765.53;5025850;28;20052;-43
2023/03/24 00:11:00;;;;;;;4.20;2.28;;;;;;;18.62;51.62;99770.91;5023117;28;20057;-43
2023/03/24 00:13:28;;;;;;;4.80;2.00;;;;;;;18.63;51.85;99769.03;5028175;28;20050;-43
2023/03/24 00:15:55;;;;;;;5.22;2.10;;;;;;;18.62;51.91;99762.00;5030210;28;20045;-44
2023/03/24 00:18:24;;;;;;;4.00;1.80;;;;;;;18.60;51.93;99756.81;5027837;28;20147;-42
2023/03/24 00:20:57;;;;;;;5.50;2.05;;;;;;;18.59;51.61;99752.47;5022977;28;20057;-43
2023/03/24 00:23:26;;;;;;;5.83;2.20;;;;;;;18.61;51.79;99739.69;5029120;28;20129;-43
2023/03/24 00:26:03;;;;;;;3.47;1.70;;;;;;;18.57;51.96;99740.25;5022946;28;20058;-42
2023/03/24 00:28:32;;;;;;;4.45;2.22;;;;;;;18.58;51.59;99741.94;5027365;28;20053;-42
2023/03/24 00:31:00;;;;;;;5.22;1.88;;;;;;;18.56;52.00;99736.72;5024275;28;20076;-41
2023/03/24 00:33:33;;;;;;;4.40;1.80;;;;;;;18.56;52.00;99715.25;5022413;28;20049;-41
2023/03/24 00:36:05;;;;;;;5.68;1.98;;;;;;;18.55;51.97;99713.59;5024508;28;20080;-41
2023/03/24 00:38:33;;;;;;;3.65;1.80;;;;;;;18.55;52.24;99712.78;5026681;28;20056;-43
2023/03/24 00:41:01;;;;;;;4.03;1.85;;;;;;;18.54;51.90;99720.00;5026637;28;20128;-42
2023/03/24 00:43:28;;;;;;;6.22;2.03;;;;;;;18.52;52.51;99727.38;5025760;28;20323;-41
2023/03/24 00:46:04;;;;;;;2.97;1.60;;;;;;;18.49;52.16;99731.28;5024370;28;20053;-42
2023/03/24 00:48:31;;;;;;;6.68;1.77;;;;;;;18.51;52.19;99728.41;5020143;28;20049;-42
2023/03/24 00:51:01;;;;;;;6.85;2.00;;;;;;;18.50;52.02;99703.44;5019826;28;20160;-43
2023/03/24 00:53:28;;;;;;;3.97;2.10;;;;;;;18.52;52.17;99710.44;5023668;28;20120;-42
2023/03/24 00:55:57;;;;;;;3.60;1.70;;;;;;;18.50;52.10;99707.97;5022692;28;20053;-42
2023/03/24 00:58:24;;;;;;;4.20;1.60;;;;;;;18.52;51.99;99705.09;5025104;28;20053;-40
2023/03/24 01:00:55;;;;;;;3.38;1.73;;;;;;;18.51;52.31;99696.22;5025262;28;20049;-41
2023/03/24 01:03:26;;;;;;;4.30;1.95;;;;;;;18.52;52.06;99692.50;5024394;28;20080;-43
2023/03/24 01:05:56;;;;;;;4.15;1.90;;;;;;;18.53;52.18;99699.53;5024960;28;20045;-41
2023/03/24 01:08:24;;;;;;;3.58;1.60;;;;;;;18.52;52.23;99692.50;5022871;28;20049;-41
2023/03/24 01:10:53;;;;;;;2.35;1.60;;;;;;;18.52;52.19;99692.50;5022199;28;20045;-42
2023/03/24 01:13:22;;;;;;;4.18;1.60;;;;;;;18.51;52.33;99685.47;5024226;28;20042;-43
2023/03/24 01:15:50;;;;;;;5.18;1.83;;;;;;;18.50;52.40;99690.00;5024027;28;20046;-43
2023/03/24 01:18:17;;;;;;;5.13;1.85;;;;;;;18.49;52.23;99688.34;5021865;28;20083;-44
2023/03/24 01:20:45;;;;;;;5.10;2.17;;;;;;;18.50;52.50;99681.13;5022521;28;20050;-42
2023/03/24 01:23:15;;;;;;;2.75;1.65;;;;;;;18.48;52.37;99681.31;5021968;28;20456;-43
2023/03/24 01:25:44;;;;;;;4.03;2.10;;;;;;;18.49;52.50;99664.22;5021817;28;20056;-42
2023/03/24 01:28:12;;;;;;;4.85;1.63;;;;;;;18.49;52.18;99674.94;5020099;28;20484;-42
2023/03/24 01:30:39;;;;;;;3.35;1.83;;;;;;;18.49;52.43;99666.03;5021410;28;20049;-43
2023/03/24 01:33:06;;;;;;;4.00;2.10;;;;;;;18.48;52.05;99661.69;5022468;28;20045;-42
2023/03/24 01:35:34;;;;;;;2.60;1.60;;;;;;;18.48;52.37;99653.63;5024028;28;20162;-43
2023/03/24 01:38:05;;;;;;;3.05;1.60;;;;;;;18.46;52.30;99664.56;5023499;28;20045;-43
2023/03/24 01:40:33;;;;;;;3.35;1.67;;;;;;;18.45;52.79;99654.00;5023919;28;20161;-43
2023/03/24 01:43:00;;;;;;;2.65;1.50;;;;;;;18.44;52.75;99655.03;5024621;28;20072;-43
2023/03/24 01:45:41;;;;;;;2.08;1.67;;;;;;;18.42;52.80;99657.06;5025731;28;20176;-42
2023/03/24 01:48:17;;;;;;;4.05;1.88;;;;;;;18.43;52.74;99654.19;5019986;28;20070;-43
2023/03/24 01:51:03;;;;;;;2.47;1.60;;;;;;;18.43;52.41;99656.88;5022829;28;20049;-42
2023/03/24 01:53:32;;;;;;;3.03;1.80;;;;;;;18.43;52.56;99650.69;5021939;28;20044;-43
2023/03/24 01:56:01;;;;;;;2.88;1.60;;;;;;;18.42;53.04;99657.06;5021889;28;20041;-43
2023/03/24 01:58:31;;;;;;;3.30;1.63;;;;;;;18.42;52.55;99662.44;5021602;28;20077;-42
2023/03/24 02:00:57;;;;;;;3.47;1.70;;;;;;;18.41;53.05;99658.06;5024058;28;20046;-40
2023/03/24 02:03:28;;;;;;;2.70;1.58;;;;;;;18.40;52.85;99656.41;5018957;28;20046;-43
2023/03/24 02:05:56;;;;;;;4.13;1.73;;;;;;;18.39;52.72;99660.94;5023087;28;20053;-43
2023/03/24 02:08:47;;;;;;;3.47;1.80;;;;;;;18.37;52.62;99678.25;5023773;28;20053;-42
2023/03/24 02:11:13;;;;;;;2.35;1.42;;;;;;;18.36;53.26;99696.19;5023525;28;20056;-41
2023/03/24 02:13:40;;;;;;;4.07;1.60;;;;;;;18.35;53.28;99717.84;5022595;28;20058;-41
2023/03/24 02:16:24;;;;;;;6.10;1.80;;;;;;;18.35;53.21;99717.84;5023145;28;20033;-42
2023/03/24 02:19:13;;;;;;;3.42;1.60;;;;;;;18.32;53.22;99705.63;5022618;28;20342;-43
2023/03/24 02:21:58;;;;;;;2.47;1.50;;;;;;;18.34;53.35;99719.69;5021783;28;20042;-40
2023/03/24 02:25:03;;;;;;;2.88;1.77;;;;;;;18.33;53.20;99714.50;5022643;28;20115;-42
2023/03/24 02:27:51;;;;;;;2.80;1.60;;;;;;;18.32;53.23;99732.44;5019515;28;20050;-41
2023/03/24 02:31:18;;;;;;;1.67;1.30;;;;;;;18.32;53.40;99740.50;5023219;28;20348;-43
2023/03/24 02:33:51;;;;;;;2.92;2.10;;;;;;;18.35;53.21;99760.75;4990626;28;20101;-42
2023/03/24 02:36:20;;;;;;;2.38;1.48;;;;;;;18.34;53.48;99785.94;5023659;28;20053;-38
2023/03/24 02:39:24;;;;;;;3.33;1.67;;;;;;;18.31;53.72;99779.06;5026134;28;20046;-42
2023/03/24 02:42:30;;;;;;;2.90;1.63;;;;;;;18.33;53.59;99778.88;5022854;28;20050;-42
2023/03/24 02:45:34;;;;;;;3.78;2.08;;;;;;;18.33;53.48;99777.06;5025313;28;20042;-43
2023/03/24 02:48:19;;;;;;;2.67;1.65;;;;;;;18.34;53.51;99791.28;5031249;28;20049;-43
2023/03/24 02:51:07;;;;;;;3.90;1.73;;;;;;;18.31;53.53;99771.03;5032426;28;20088;-42
2023/03/24 02:54:22;;;;;;;3.00;1.63;;;;;;;18.31;53.67;99783.59;5030886;28;20049;-42
2023/03/24 02:56:57;;;;;;;2.17;1.65;;;;;;;18.31;53.39;99789.81;5021036;28;20052;-42
2023/03/24 02:59:43;;;;;;;2.92;1.65;;;;;;;18.30;53.57;99800.72;5028367;28;20050;-42
2023/03/24 03:02:19;;;;;;;2.90;1.75;;;;;;;18.31;53.90;99805.06;5027236;28;20065;-42
2023/03/24 03:04:51;;;;;;;3.17;1.73;;;;;;;18.30;53.27;99816.81;5030816;28;20140;-42
2023/03/24 03:07:23;;;;;;;3.17;1.63;;;;;;;18.30;53.64;99830.22;5015920;28;20053;-42
2023/03/24 03:09:58;;;;;;;3.65;1.80;;;;;;;18.29;53.34;99816.00;5030260;28;20053;-41
2023/03/24 03:12:30;;;;;;;3.33;1.75;;;;;;;18.29;53.31;99815.13;5029447;28;20053;-42
2023/03/24 03:15:02;;;;;;;4.30;1.90;;;;;;;18.28;53.57;99822.34;5025925;28;20403;-43
2023/03/24 03:17:34;;;;;;;3.45;1.60;;;;;;;18.28;53.62;99835.75;5027085;28;20054;-42
2023/03/24 03:20:10;;;;;;;3.15;1.70;;;;;;;18.27;53.44;99844.00;5028913;28;20111;-43
2023/03/24 03:22:44;;;;;;;2.22;1.60;;;;;;;18.27;53.67;99841.31;5026055;28;20480;-41
2023/03/24 03:25:15;;;;;;;3.85;1.77;;;;;;;18.26;53.49;99851.22;5027797;28;20056;-42
2023/03/24 03:27:45;;;;;;;2.53;1.55;;;;;;;18.25;53.52;99847.69;5024652;28;20045;-43
2023/03/24 03:30:21;;;;;;;1.90;1.40;;;;;;;18.24;53.90;99843.31;5029207;28;20133;-42
2023/03/24 03:32:54;;;;;;;3.35;1.92;;;;;;;18.23;53.72;99857.75;5029007;28;20132;-42
2023/03/24 03:35:49;;;;;;;4.78;1.60;;;;;;;18.23;53.59;99862.28;5024876;28;20050;-42
2023/03/24 03:38:25;;;;;;;3.80;1.65;;;;;;;18.22;53.38;99860.63;5027902;28;20520;-40
2023/03/24 03:40:59;;;;;;;2.53;1.75;;;;;;;18.21;53.72;99859.78;5025891;28;20053;-42
2023/03/24 03:43:27;;;;;;;3.95;1.98;;;;;;;18.21;53.98;99859.78;5027001;28;20061;-43
2023/03/24 03:45:54;;;;;;;2.97;1.83;;;;;;;18.20;53.32;99863.47;5028605;28;20053;-43
2023/03/24 03:48:25;;;;;;;2.47;1.75;;;;;;;18.20;53.83;99862.63;5029305;28;20045;-43
2023/03/24 03:50:53;;;;;;;1.90;1.27;;;;;;;18.18;53.43;99865.50;5021755;28;20038;-41
2023/03/24 03:53:50;;;;;;;3.58;1.63;;;;;;;18.17;53.64;99873.72;5028566;28;20058;-40
2023/03/24 03:56:19;;;;;;;2.85;1.77;;;;;;;18.17;53.25;99890.66;5027617;28;20393;-41
2023/03/24 03:58:46;;;;;;;4.03;1.77;;;;;;;18.17;53.38;99892.50;5024893;28;20445;-43
2023/03/24 04:01:17;;;;;;;3.55;2.28;;;;;;;18.16;53.32;99893.50;5022602;28;20426;-43
2023/03/24 04:04:05;;;;;;;3.50;1.77;;;;;;;18.14;53.55;99899.06;5023602;28;20133;-42
2023/03/24 04:06:34;;;;;;;4.22;1.30;;;;;;;18.14;53.39;99892.88;5022100;28;20045;-42
2023/03/24 04:09:27;;;;;;;3.60;1.65;;;;;;;18.14;53.44;99907.09;5023772;28;20050;-43
2023/03/24 04:12:01;;;;;;;3.22;1.33;;;;;;;18.13;53.31;99892.03;5023442;28;20057;-42
2023/03/24 04:14:44;;;;;;;4.82;1.95;;;;;;;18.13;53.44;99886.69;5022767;28;20045;-42
2023/03/24 04:17:45;;;;;;;4.90;1.60;;;;;;;18.11;53.41;99896.72;5024378;28;20053;-42
2023/03/24 04:20:23;;;;;;;4.80;1.75;;;;;;;18.12;53.05;99913.66;5021422;28;20531;-43
2023/03/24 04:23:25;;;;;;;4.55;1.60;;;;;;;18.11;53.45;99918.19;5027527;28;20055;-43
2023/03/24 04:26:33;;;;;;;2.92;1.45;;;;;;;18.12;53.26;99927.06;5021733;28;20049;-42
2023/03/24 04:29:08;;;;;;;2.97;1.33;;;;;;;18.13;53.33;99928.72;5019626;28;20046;-42
2023/03/24 04:31:48;;;;;;;3.35;1.58;;;;;;;18.11;53.45;99936.13;5022616;28;20064;-43
2023/03/24 04:34:20;;;;;;;3.70;1.48;;;;;;;18.11;53.33;99950.38;5022163;28;20052;-42
2023/03/24 04:36:53;;;;;;;3.77;1.37;;;;;;;18.12;53.64;99945.84;5026126;28;20056;-42
2023/03/24 04:39:26;;;;;;;4.85;1.70;;;;;;;18.10;53.42;99942.50;5022355;28;20068;-43
2023/03/24 04:41:56;;;;;;;5.13;1.83;;;;;;;18.10;53.50;99929.94;5026922;28;20046;-43
2023/03/24 04:44:25;;;;;;;3.65;1.63;;;;;;;18.10;53.30;99945.19;5023895;28;20045;-42
2023/03/24 04:46:56;;;;;;;4.40;1.50;;;;;;;18.10;53.45;99946.03;5027418;28;20140;-41
2023/03/24 04:49:24;;;;;;;5.72;1.80;;;;;;;18.11;53.52;99957.56;5025678;28;20439;-42
2023/03/24 04:51:51;;;;;;;2.58;1.25;;;;;;;18.10;53.04;99966.63;5025132;28;20563;-43
2023/03/24 04:54:19;;;;;;;4.43;1.65;;;;;;;18.08;53.41;99961.44;5021706;28;20065;-43
2023/03/24 04:56:49;;;;;;;4.07;1.55;;;;;;;18.08;53.66;99955.25;5018928;28;20433;-42
2023/03/24 04:59:17;;;;;;;3.88;1.52;;;;;;;18.08;53.29;99963.28;5022837;28;20734;-43
2023/03/24 05:01:50;;;;;;;4.00;1.48;;;;;;;18.08;53.24;99972.16;5023140;28;20046;-42
2023/03/24 05:04:27;;;;;;;4.22;1.42;;;;;;;18.07;53.32;99981.22;5023684;28;20529;-42
2023/03/24 05:06:53;;;;;;;5.47;1.70;;;;;;;18.08;53.37;99974.00;5022855;28;20068;-43
2023/03/24 05:09:22;;;;;;;4.30;1.77;;;;;;;18.07;53.58;99989.28;5025773;28;20081;-43
2023/03/24 05:11:49;;;;;;;5.05;1.80;;;;;;;18.05;53.47;99977.03;5023161;28;20449;-43
2023/03/24 05:14:16;;;;;;;6.93;1.85;;;;;;;18.05;53.20;99987.75;5022816;28;20773;-42
2023/03/24 05:16:42;;;;;;;6.80;1.60;;;;;;;18.05;53.32;99993.13;5021374;28;20068;-42
2023/03/24 05:19:09;;;;;;;3.85;1.65;;;;;;;18.03;52.80;100000.53;5025651;28;20465;-43
2023/03/24 05:21:36;;;;;;;5.00;1.63;;;;;;;18.01;52.89;100011.44;5022151;28;20052;-43
2023/03/24 05:24:03;;;;;;;5.20;2.03;;;;;;;18.00;53.40;100007.06;5022319;28;20049;-42
2023/03/24 05:26:30;;;;;;;3.58;1.83;;;;;;;18.00;53.08;100009.75;5021842;28;20050;-43
2023/03/24 05:28:59;;;;;;;6.13;2.40;;;;;;;17.98;53.36;100009.94;5020196;28;20146;-43
2023/03/24 05:31:26;;;;;;;4.82;2.13;;;;;;;17.98;52.84;100025.19;5024156;28;20065;-43
2023/03/24 05:33:52;;;;;;;4.47;1.70;;;;;;;17.98;53.29;100022.50;5026112;28;20074;-43
2023/03/24 05:36:19;;;;;;;7.40;2.00;;;;;;;17.97;53.04;100027.03;5026050;28;20394;-41
2023/03/24 05:38:46;;;;;;;5.95;1.58;;;;;;;17.97;52.97;100028.88;5027051;28;20053;-42
2023/03/24 05:41:12;;;;;;;6.53;2.33;;;;;;;17.95;52.99;100039.75;5028319;28;20340;-42
2023/03/24 05:43:39;;;;;;;7.63;1.95;;;;;;;17.95;53.28;100031.72;5022069;28;20054;-42
2023/03/24 05:46:05;;;;;;;4.05;1.67;;;;;;;17.94;53.41;100031.91;5021321;28;20052;-43
2023/03/24 05:48:32;;;;;;;5.43;1.80;;;;;;;17.93;52.86;100028.38;5022469;28;20053;-44
2023/03/24 05:50:59;;;;;;;7.43;2.13;;;;;;;17.95;52.73;100029.03;5026198;28;20057;-42
2023/03/24 05:53:25;;;;;;;7.07;2.03;;;;;;;17.94;53.05;100035.41;5024910;28;20056;-43
2023/03/24 05:55:52;;;;;;;7.63;2.25;;;;;;;17.94;52.99;100037.25;5026708;28;20056;-42
2023/03/24 05:58:20;;;;;;;6.57;2.08;;;;;;;17.94;52.73;100042.63;5024100;28;20103;-41
2023/03/24 06:00:47;;;;;;;6.68;2.63;;;;;;;17.94;53.00;100040.78;5024252;28;20380;-41
2023/03/24 06:03:15;;;;;;;5.68;2.20;;;;;;;17.94;52.60;100048.81;5025279;28;20041;-42
2023/03/24 06:05:44;;;;;;;6.03;2.13;;;;;;;17.95;52.34;100050.47;5024737;28;20056;-41
2023/03/24 06:08:11;;;;;;;5.68;2.17;;;;;;;17.94;52.97;100046.13;5024147;28;20053;-42
2023/03/24 06:10:39;;;;;;;7.03;2.17;;;;;;;17.94;52.68;100051.50;5026408;28;20057;-43
2023/03/24 06:13:07;;;;;;;11.50;3.17;;;;;;;17.96;52.72;100059.34;5018041;28;20429;-42
2023/03/24 06:15:35;;;;;;;7.03;2.53;;;;;;;17.95;52.77;100058.53;5026857;28;20088;-43
2023/03/24 06:18:04;;;;;;;8.70;2.55;;;;;;;17.94;52.81;100050.66;5026589;28;20053;-43
2023/03/24 06:20:31;;;;;;;11.10;2.80;;;;;;;17.93;52.41;100060.56;5022939;28;20077;-41
2023/03/24 06:22:58;;;;;;;6.63;2.60;;;;;;;17.95;52.47;100057.69;5029118;28;20057;-43
2023/03/24 06:25:27;;;;;;;9.80;3.35;;;;;;;17.96;52.39;100073.59;5024197;28;20477;-43
2023/03/24 06:27:54;;;;;;;7.38;3.30;;;;;;;17.95;52.28;100068.41;5022025;28;20057;-42
2023/03/24 06:30:20;;;;;;;7.45;3.10;;;;;;;17.96;52.17;100064.72;5024851;28;20045;-43
2023/03/24 06:32:47;;;;;;;9.25;3.65;;;;;;;17.96;52.40;100067.41;5024644;28;20773;-40
2023/03/24 06:35:15;;;;;;;10.27;3.13;;;;;;;17.97;52.79;100069.94;5025156;28;20103;-42
2023/03/24 06:37:43;;;;;;;6.40;3.10;;;;;;;17.98;52.62;100073.44;5027585;28;20337;-42
2023/03/24 06:40:14;;;;;;;9.38;2.97;;;;;;;17.98;52.31;100074.28;5026118;28;20409;-42
2023/03/24 06:42:41;;;;;;;7.07;3.28;;;;;;;17.99;52.31;100083.16;5022322;28;20045;-43
2023/03/24 06:45:08;;;;;;;9.48;3.60;;;;;;;18.00;52.58;100082.13;5024741;28;20053;-41
2023/03/24 06:47:36;;;;;;;12.65;3.92;;;;;;;18.01;52.06;100094.56;5020968;28;20091;-43
2023/03/24 06:50:04;;;;;;;8.10;3.95;;;;;;;18.01;52.21;100097.25;5020171;28;20179;-42
2023/03/24 06:52:31;;;;;;;9.32;3.63;;;;;;;18.00;52.07;100096.38;5022508;28;20056;-42
2023/03/24 06:54:57;;;;;;;9.77;3.85;;;;;;;18.02;52.44;100096.22;5022312;28;20059;-44
2023/03/24 06:57:24;;;;;;;8.50;3.30;;;;;;;18.05;52.08;100103.06;5023437;28;20156;-43
2023/03/24 06:59:52;;;;;;;8.45;3.70;;;;;;;18.06;52.39;100105.59;5023229;28;20341;-42
2023/03/24 07:02:18;;;;;;;12.57;4.25;;;;;;;18.08;52.46;100127.69;5020591;28;20076;-43
2023/03/24 07:04:45;;;;;;;8.00;3.47;;;;;;;18.09;51.93;100112.44;5022957;28;20778;-42
2023/03/24 07:07:11;;;;;;;8.02;3.75;;;;;;;18.10;52.16;100120.34;5020369;28;20046;-44
2023/03/24 07:09:58;;;;;;;8.32;4.32;;;;;;;18.11;52.00;100122.00;5021955;28;20099;-43
2023/03/24 07:12:25;;;;;;;10.45;3.92;;;;;;;18.13;51.86;100116.44;5018136;28;20533;-42
2023/03/24 07:14:51;;;;;;;10.38;4.20;;;;;;;18.14;52.16;100127.03;5025552;28;20079;-41
2023/03/24 07:17:18;;;;;;;8.43;3.80;;;;;;;18.15;52.39;100117.13;5030911;28;20049;-42
2023/03/24 07:19:44;;;;;;;11.65;4.07;;;;;;;18.16;51.98;100135.72;5030604;28;20053;-44
2023/03/24 07:22:11;;;;;;;9.45;4.63;;;;;;;18.16;52.12;100127.69;5027930;28;20053;-40
2023/03/24 07:24:37;;;;;;;8.52;4.05;;;;;;;18.18;52.00;100143.63;5029314;28;20432;-43
2023/03/24 07:27:05;;;;;;;11.60;4.20;;;;;;;18.20;51.54;100145.09;5035531;28;20137;-42
2023/03/24 07:29:32;;;;;;;8.15;3.45;;;;;;;18.21;51.58;100148.63;5029174;28;20049;-42
2023/03/24 07:31:59;;;;;;;7.95;3.58;;;;;;;18.22;51.49;100145.78;5025552;28;20539;-43
2023/03/24 07:34:27;;;;;;;11.82;4.30;;;;;;;18.24;51.74;100140.22;5028635;28;20041;-40
2023/03/24 07:36:54;;;;;;;14.70;4.53;;;;;;;18.25;51.43;100153.50;5030197;28;20042;-42
2023/03/24 07:39:21;;;;;;;11.52;4.57;;;;;;;18.29;51.88;100163.84;5025564;28;20049;-43
2023/03/24 07:41:48;;;;;;;8.98;3.83;;;;;;;18.30;51.78;100150.28;5027675;28;20056;-41
2023/03/24 07:44:14;;;;;;;9.20;3.95;;;;;;;18.30;51.56;100152.97;5025025;28;20049;-43
2023/03/24 07:46:41;;;;;;;11.52;4.65;;;;;;;18.32;51.67;100147.41;5028579;28;20099;-42
2023/03/24 07:49:07;;;;;;;8.82;3.67;;;;;;;18.32;51.58;100142.88;5030133;28;20049;-41
2023/03/24 07:51:45;;;;;;;7.60;4.20;;;;;;;18.35;51.17;100152.44;5025971;28;20050;-41
2023/03/24 07:54:12;;;;;;;14.15;4.63;;;;;;;18.36;51.58;100162.16;5024833;28;20129;-43
2023/03/24 07:56:38;;;;;;;8.13;3.90;;;;;;;18.36;51.25;100173.72;5024965;28;20406;-43
2023/03/24 07:59:05;;;;;;;9.00;3.83;;;;;;;18.38;51.50;100162.84;5023876;28;20053;-43
2023/03/24 08:01:31;;;;;;;9.20;4.22;;;;;;;18.39;51.74;100176.06;5025113;28;20125;-43
2023/03/24 08:03:58;;;;;;;9.98;4.28;;;;;;;18.41;51.64;100170.53;5020544;28;20064;-42
2023/03/24 08:06:25;;;;;;;9.55;3.88;;;;;;;18.41;51.79;100168.69;5023833;28;20049;-43
2023/03/24 08:08:52;;;;;;;11.02;5.15;;;;;;;18.42;51.31;100173.06;5039529;28;20056;-42
2023/03/24 08:11:18;;;;;;;9.35;3.80;;;;;;;18.43;51.37;100185.44;5020823;28;20443;-42
2023/03/24 08:13:45;;;;;;;8.93;3.45;;;;;;;18.45;51.13;100182.59;5027575;28;20060;-43
2023/03/24 08:16:11;;;;;;;9.90;4.30;;;;;;;18.47;51.46;100191.31;5022165;28;20050;-44
2023/03/24 08:18:38;;;;;;;10.88;4.00;;;;;;;18.48;51.21;100196.50;5026820;28;20045;-43
2023/03/24 08:21:05;;;;;;;10.07;3.78;;;;;;;18.50;51.06;100180.25;5024395;28;20048;-41
2023/03/24 08:23:32;;;;;;;8.35;4.32;;;;;;;18.53;51.36;100181.72;5027325;28;20429;-43
2023/03/24 08:25:58;;;;;;;9.60;3.90;;;;;;;18.55;51.29;100185.91;5025783;28;20125;-42
2023/03/24 08:28:25;;;;;;;11.25;4.10;;;;;;;18.58;51.02;100193.63;5027584;28;20058;-42
2023/03/24 08:30:51;;;;;;;9.00;4.00;;;;;;;18.61;50.77;100190.56;5026619;28;20421;-43
2023/03/24 08:33:18;;;;;;;8.20;3.75;;;;;;;18.64;50.94;100187.56;5024081;28;20053;-43
2023/03/24 08:35:45;;;;;;;11.10;3.80;;;;;;;18.68;51.38;100193.41;5025052;28;20065;-43
2023/03/24 08:38:14;;;;;;;8.30;3.95;;;;;;;18.71;51.17;100198.47;5022523;28;20053;-43
2023/03/24 08:40:44;;;;;;;8.70;4.22;;;;;;;18.76;50.96;100200.63;5023512;28;20176;-42
2023/03/24 08:43:14;;;;;;;9.85;3.90;;;;;;;18.80;51.28;100199.28;5023977;28;20133;-43
2023/03/24 08:45:40;;;;;;;7.45;3.65;;;;;;;18.83;50.87;100215.03;5024458;28;20049;-42
2023/03/24 08:48:07;;;;;;;8.07;3.85;;;;;;;18.85;51.08;100200.41;5025118;28;20049;-42
2023/03/24 08:50:38;;;;;;;7.57;3.65;;;;;;;18.89;51.03;100208.97;5022862;28;20061;-43
2023/03/24 08:53:05;;;;;;;7.97;4.35;;;;;;;18.92;50.74;100205.94;5028412;28;20049;-43
2023/03/24 08:55:31;;;;;;;8.07;4.07;;;;;;;18.95;50.52;100211.78;5027362;28;20059;-43
2023/03/24 08:57:58;;;;;;;10.00;3.90;;;;;;;18.98;50.73;100219.50;5024671;28;20045;-42
2023/03/24 09:00:27;;;;;;;8.70;3.72;;;;;;;18.99;50.65;100213.13;5026017;28;20129;-42
2023/03/24 09:02:55;;;;;;;9.30;3.45;;;;;;;19.01;51.01;100228.22;5021838;28;20042;-43
2023/03/24 09:05:24;;;;;;;7.35;2.85;;;;;;;19.02;50.87;100225.38;5026578;28;20057;-41
2023/03/24 09:08:11;;;;;;;7.72;3.83;;;;;;;19.04;50.29;100225.19;5025781;28;20341;-42
2023/03/24 09:10:38;;;;;;;10.35;3.55;;;;;;;19.03;50.41;100235.09;5024326;28;20057;-43
2023/03/24 09:13:05;;;;;;;7.70;3.50;;;;;;;19.04;49.91;100236.75;5024150;28;20068;-43
2023/03/24 09:15:32;;;;;;;8.85;3.70;;;;;;;19.05;50.33;100238.44;5025342;28;20061;-43
2023/03/24 09:17:59;;;;;;;5.90;3.35;;;;;;;19.07;49.81;100233.72;5021528;28;20046;-42
2023/03/24 09:20:26;;;;;;;5.88;3.00;;;;;;;19.09;50.53;100245.13;5018476;28;20049;-43
2023/03/24 09:22:53;;;;;;;9.75;3.75;;;;;;;19.11;50.31;100248.47;5024560;28;20168;-43
2023/03/24 09:25:20;;;;;;;7.97;3.55;;;;;;;19.12;50.26;100250.16;5021680;28;20329;-44
2023/03/24 09:27:47;;;;;;;6.75;3.08;;;;;;;19.13;50.37;100243.75;5026349;28;20049;-43
2023/03/24 09:30:16;;;;;;;7.35;3.25;;;;;;;19.16;50.29;100256.00;5021438;28;20042;-43
2023/03/24 09:32:44;;;;;;;5.78;2.90;;;;;;;19.16;50.17;100246.09;5024980;28;20049;-42
2023/03/24 09:35:10;;;;;;;10.40;3.30;;;;;;;19.21;50.67;100256.31;5023811;28;20053;-42
2023/03/24 09:37:38;;;;;;;6.10;3.42;;;;;;;19.25;50.57;100263.00;5023489;28;20041;-41
2023/03/24 09:40:06;;;;;;;5.50;2.80;;;;;;;19.30;50.41;100262.50;5021714;28;20133;-44
2023/03/24 09:42:37;;;;;;;6.20;2.70;;;;;;;19.35;50.42;100249.38;5021069;28;20052;-42
2023/03/24 09:45:12;;;;;;;9.05;3.75;;;;;;;19.41;50.16;100248.66;5021163;28;20400;-43
2023/03/24 09:47:50;;;;;;;7.72;3.20;;;;;;;19.46;50.23;100257.03;5026268;28;20049;-41
2023/03/24 09:50:20;;;;;;;5.32;2.80;;;;;;;19.53;49.60;100263.34;5023827;28;20057;-42
2023/03/24 09:52:53;;;;;;;7.43;3.08;;;;;;;19.59;50.46;100268.03;5020658;28;20072;-42
2023/03/24 09:55:24;;;;;;;6.20;3.00;;;;;;;19.64;49.92;100278.28;5017992;28;20129;-42
2023/03/24 09:57:52;;;;;;;5.70;2.70;;;;;;;19.67;50.18;100283.31;5020746;28;20056;-43
2023/03/24 10:00:29;;;;;;;7.55;3.65;;;;;;;19.69;50.04;100270.50;5020292;28;20049;-43
2023/03/24 10:03:00;;;;;;;8.98;2.90;;;;;;;19.72;49.36;100279.06;5023372;28;20046;-43
2023/03/24 10:05:46;;;;;;;5.15;2.38;;;;;;;19.75;49.53;100267.13;5026297;28;20084;-44
2023/03/24 10:08:32;;;;;;;6.57;3.22;;;;;;;19.78;49.96;100274.84;5027212;28;20119;-43
2023/03/24 10:11:10;;;;;;;6.80;2.78;;;;;;;19.81;49.76;100284.38;5026584;28;20050;-42
2023/03/24 10:14:02;;;;;;;6.22;2.67;;;;;;;19.81;49.20;100279.00;5022970;28;20053;-43
2023/03/24 10:16:37;;;;;;;9.10;2.85;;;;;;;19.84;50.01;100274.09;5026937;28;20453;-43
2023/03/24 10:19:16;;;;;;;7.38;2.83;;;;;;;19.86;49.53;100265.84;5024747;28;20149;-43
2023/03/24 10:22:12;;;;;;;7.43;2.60;;;;;;;19.86;49.11;100263.16;5025734;28;20050;-43
2023/03/24 10:25:05;;;;;;;7.10;2.55;;;;;;;19.84;49.35;100276.78;5024057;28;20063;-43
2023/03/24 10:27:44;;;;;;;8.43;3.17;;;;;;;19.86;49.26;100265.84;5021986;28;20050;-43
2023/03/24 10:30:16;;;;;;;5.72;2.67;;;;;;;19.86;49.26;100268.53;5025860;28;20050;-44
2023/03/24 10:32:44;;;;;;;7.25;2.53;;;;;;;19.85;49.31;100266.88;5040599;28;20053;-44
2023/03/24 10:35:36;;;;;;;7.47;2.72;;;;;;;19.85;49.07;100270.38;5022545;28;20103;-44
2023/03/24 10:38:18;;;;;;;7.13;2.72;;;;;;;19.86;49.20;100274.78;5025896;28;20042;-42
2023/03/24 10:40:46;;;;;;;4.75;2.45;;;;;;;19.89;49.27;100277.09;5019556;28;20054;-43
2023/03/24 10:43:16;;;;;;;6.35;2.10;;;;;;;19.91;49.25;100269.69;5021483;28;20053;-43
2023/03/24 10:45:46;;;;;;;5.82;2.70;;;;;;;19.93;49.01;100274.88;5021601;28;20064;-43
2023/03/24 10:48:32;;;;;;;6.65;2.13;;;;;;;19.93;49.08;100281.09;5023007;28;20057;-43
2023/03/24 10:50:58;;;;;;;7.25;2.92;;;;;;;19.96;48.95;100279.91;5026958;28;20347;-43
2023/03/24 10:53:26;;;;;;;6.15;2.22;;;;;;;19.93;49.23;100272.19;5024624;28;20383;-43
2023/03/24 10:55:52;;;;;;;12.55;2.53;;;;;;;19.93;49.15;100280.25;5026047;28;20406;-42
2023/03/24 10:58:38;;;;;;;9.70;2.75;;;;;;;19.90;49.80;100268.03;5025883;28;20046;-44
2023/03/24 11:01:22;;;;;;;9.40;2.90;;;;;;;19.88;49.33;100277.28;5027890;28;20132;-43
2023/03/24 11:03:49;;;;;;;6.80;3.08;;;;;;;19.89;49.37;100281.63;5025486;28;20067;-43
2023/03/24 11:06:19;;;;;;;8.73;3.70;;;;;;;19.88;49.10;100277.28;5030803;28;20046;-43
2023/03/24 11:08:46;;;;;;;12.43;3.90;;;;;;;19.87;49.45;100279.13;5028706;28;20111;-43
2023/03/24 11:11:30;;;;;;;7.88;3.92;;;;;;;19.86;49.10;100279.28;5028564;28;20433;-43
2023/03/24 11:14:03;;;;;;;11.18;4.85;;;;;;;19.86;49.62;100279.28;5024035;28;20096;-43
2023/03/24 11:16:35;;;;;;;13.55;4.50;;;;;;;19.86;48.97;100281.97;5029676;28;20579;-44
2023/03/24 11:19:22;;;;;;;18.23;5.50;;;;;;;19.84;48.81;100284.88;5026487;28;20053;-43
2023/03/24 11:21:51;;;;;;;10.13;4.72;;;;;;;19.84;48.99;100284.88;5027833;28;20432;-43
2023/03/24 11:24:19;;;;;;;15.20;6.82;;;;;;;19.86;48.91;100287.34;5028665;28;20045;-43
2023/03/24 11:27:02;;;;;;;15.93;6.20;;;;;;;19.85;49.05;100294.59;5025583;28;20124;-44
2023/03/24 11:29:37;;;;;;;16.10;6.93;;;;;;;19.85;49.24;100293.75;5020593;28;20052;-43
2023/03/24 11:32:13;;;;;;;18.92;8.45;;;;;;;19.85;49.93;100277.63;5023627;28;20065;-44
2023/03/24 11:34:47;;;;;;;18.40;7.93;;;;;;;19.87;49.51;100283.69;5026006;28;20469;-44
2023/03/24 11:37:21;;;;;;;17.13;7.25;;;;;;;19.85;48.96;100289.22;5027632;28;20049;-44
2023/03/24 11:40:13;;;;;;;15.48;5.97;;;;;;;19.85;49.65;100293.75;5028535;28;20045;-44
2023/03/24 11:42:42;;;;;;;24.75;8.23;;;;;;;19.86;48.79;100285.53;5029497;28;20440;-42
2023/03/24 11:45:34;;;;;;;19.58;7.85;;;;;;;19.84;49.61;100282.19;5027923;28;20072;-42
2023/03/24 11:48:10;;;;;;;24.75;8.50;;;;;;;19.85;49.10;100288.38;5027231;28;20072;-44
2023/03/24 11:50:38;;;;;;;24.42;8.45;;;;;;;19.85;49.57;100288.38;5028784;28;20045;-43